createdAt,value
2019-01-23T00:01:29.889Z,20.70
2019-01-23T00:04:34.344Z,20.07
2019-01-23T00:07:38.787Z,20.67
2019-01-23T00:10:43.557Z,20.77
2019-01-23T00:13:48.288Z,23.33
2019-01-23T00:16:53.024Z,20.20
2019-01-23T00:19:57.471Z,21.37
2019-01-23T00:23:02.176Z,22.10
2019-01-23T00:26:06.906Z,21.30
2019-01-23T00:29:11.355Z,22.47
2019-01-23T00:32:15.798Z,21.67
2019-01-23T00:35:20.247Z,20.43
2019-01-23T00:38:24.679Z,21.60
2019-01-23T00:41:29.368Z,20.23
2019-01-23T00:44:34.164Z,20.07
2019-01-23T00:47:38.607Z,21.47
2019-01-23T00:50:43.322Z,20.93
2019-01-23T00:53:48.046Z,20.10
2019-01-23T00:56:52.487Z,21.80
2019-01-23T00:59:56.937Z,21.43
2019-01-23T01:03:01.450Z,21.20
2019-01-23T01:06:06.361Z,20.70
2019-01-23T01:09:11.045Z,22.17
2019-01-23T01:12:15.495Z,20.77
2019-01-23T01:15:20.350Z,22.00
2019-01-23T01:18:25.301Z,22.77
2019-01-23T01:21:29.751Z,22.17
2019-01-23T01:24:34.202Z,21.73
2019-01-23T01:27:38.958Z,22.50
2019-01-23T01:30:43.405Z,22.87
2019-01-23T01:33:48.117Z,21.03
2019-01-23T01:36:52.866Z,22.53
2019-01-23T01:39:57.577Z,21.33
2019-01-23T01:43:02.022Z,22.17
2019-01-23T01:46:06.476Z,23.57
2019-01-23T01:49:11.275Z,21.67
2019-01-23T01:52:15.987Z,21.47
2019-01-23T01:55:20.512Z,25.27
2019-01-23T01:58:24.953Z,22.87
2019-01-23T02:01:29.401Z,21.90
2019-01-23T02:04:34.089Z,23.83
2019-01-23T02:07:38.540Z,23.33
2019-01-23T02:10:42.992Z,23.13
2019-01-23T02:13:47.438Z,22.30
2019-01-23T02:16:52.204Z,22.43
2019-01-23T02:19:56.926Z,23.13
2019-01-23T02:23:01.367Z,22.73
2019-01-23T02:26:06.081Z,23.83
2019-01-23T02:29:10.515Z,23.80
2019-01-23T02:32:15.240Z,25.30
2019-01-23T02:35:19.978Z,24.47
2019-01-23T02:38:24.414Z,22.87
2019-01-23T02:41:29.136Z,23.30
2019-01-23T02:44:33.851Z,24.80
2019-01-23T02:47:38.370Z,24.03
2019-01-23T02:50:43.107Z,23.60
2019-01-23T02:53:47.552Z,22.50
2019-01-23T02:56:52.005Z,24.20
2019-01-23T02:59:56.790Z,24.07
2019-01-23T03:03:02.003Z,24.07
2019-01-23T03:06:06.561Z,23.97
2019-01-23T03:09:10.986Z,24.80
2019-01-23T03:12:15.706Z,24.10
2019-01-23T03:15:20.748Z,25.00
2019-01-23T03:18:25.480Z,25.30
2019-01-23T03:21:29.929Z,24.67
2019-01-23T03:24:34.379Z,25.93
2019-01-23T03:27:39.157Z,25.13
2019-01-23T03:30:43.600Z,26.80
2019-01-23T03:33:48.433Z,25.00
2019-01-23T03:36:52.885Z,25.53
2019-01-23T03:39:57.566Z,24.83
2019-01-23T03:43:02.018Z,24.00
2019-01-23T03:46:06.926Z,26.43
2019-01-23T03:49:11.373Z,25.80
2019-01-23T03:52:15.833Z,25.03
2019-01-23T03:55:20.731Z,23.23
2019-01-23T03:58:25.190Z,24.43
2019-01-23T04:01:29.649Z,24.77
2019-01-23T04:04:34.083Z,24.20
2019-01-23T04:07:38.532Z,24.07
2019-01-23T04:10:42.979Z,22.60
2019-01-23T04:13:47.447Z,24.83
2019-01-23T04:16:52.199Z,27.17
2019-01-23T04:19:56.632Z,23.57
2019-01-23T04:23:01.088Z,24.13
2019-01-23T04:26:05.602Z,23.27
2019-01-23T04:29:10.058Z,22.83
2019-01-23T04:32:14.820Z,24.30
2019-01-23T04:35:19.438Z,23.70
2019-01-23T04:38:23.882Z,24.03
2019-01-23T04:41:28.599Z,24.77
2019-01-23T04:44:33.335Z,25.50
2019-01-23T04:47:37.789Z,22.37
2019-01-23T04:50:56.151Z,23.73
2019-01-23T04:54:01.242Z,25.23
2019-01-23T04:57:05.683Z,21.63
2019-01-23T05:00:14.856Z,21.77
2019-01-23T05:03:19.633Z,24.23
2019-01-23T05:06:24.369Z,21.83
2019-01-23T05:09:29.094Z,21.63
2019-01-23T05:12:33.550Z,23.47
2019-01-23T05:15:38.014Z,24.87
2019-01-23T05:18:42.773Z,23.40
2019-01-23T05:21:47.214Z,24.20
2019-01-23T05:24:51.931Z,24.30
2019-01-23T05:27:56.387Z,25.53
2019-01-23T05:31:01.093Z,22.60
2019-01-23T05:34:05.604Z,21.60
2019-01-23T05:37:10.049Z,25.03
2019-01-23T05:40:15.280Z,24.50
2019-01-23T05:43:19.740Z,24.67
2019-01-23T05:46:24.181Z,21.97
2019-01-23T05:49:28.957Z,24.70
2019-01-23T05:52:33.400Z,26.57
2019-01-23T05:55:37.856Z,22.90
2019-01-23T05:58:42.641Z,23.57
2019-01-23T06:01:47.216Z,23.60
2019-01-23T06:04:51.999Z,24.47
2019-01-23T06:07:56.449Z,26.07
2019-01-23T06:11:01.258Z,25.73
2019-01-23T06:14:06.500Z,24.47
2019-01-23T06:17:11.233Z,23.53
2019-01-23T06:20:21.317Z,24.17
2019-01-23T06:23:26.016Z,25.63
2019-01-23T06:26:30.472Z,24.13
2019-01-23T06:29:35.272Z,25.33
2019-01-23T06:32:39.783Z,22.77
2019-01-23T06:35:44.231Z,23.97
2019-01-23T06:38:48.949Z,25.67
2019-01-23T06:41:53.681Z,25.20
2019-01-23T06:44:58.410Z,26.37
2019-01-23T06:48:02.850Z,23.80
2019-01-23T06:51:07.568Z,25.97
2019-01-23T06:54:12.039Z,23.23
2019-01-23T06:57:16.535Z,22.13
2019-01-23T07:00:23.600Z,23.77
2019-01-23T07:03:28.038Z,24.53
2019-01-23T07:06:32.752Z,24.33
2019-01-23T07:09:37.195Z,22.33
2019-01-23T07:12:41.659Z,23.17
2019-01-23T07:15:46.438Z,23.67
2019-01-23T07:18:51.169Z,22.83
2019-01-23T07:21:55.898Z,25.23
2019-01-23T07:25:00.354Z,24.87
2019-01-23T07:28:04.863Z,23.80
2019-01-23T07:31:09.593Z,22.93
2019-01-23T07:34:14.053Z,24.03
2019-01-23T07:37:18.507Z,21.93
2019-01-23T07:40:23.260Z,25.67
2019-01-23T07:43:27.704Z,26.17
2019-01-23T07:46:32.158Z,24.93
2019-01-23T07:49:36.937Z,23.53
2019-01-23T07:52:41.971Z,24.87
2019-01-23T07:55:46.424Z,23.63
2019-01-23T07:58:50.873Z,22.80
2019-01-23T08:01:55.662Z,26.33
2019-01-23T08:05:00.195Z,24.97
2019-01-23T08:08:05.120Z,25.67
2019-01-23T08:11:09.586Z,25.73
2019-01-23T08:14:15.196Z,26.17
2019-01-23T08:17:19.668Z,26.70
2019-01-23T08:20:26.920Z,25.13
2019-01-23T08:23:31.637Z,24.20
2019-01-23T08:26:36.370Z,27.67
2019-01-23T08:29:41.100Z,27.70
2019-01-23T08:32:45.832Z,27.53
2019-01-23T08:35:50.275Z,26.43
2019-01-23T08:38:54.727Z,27.83
2019-01-23T08:41:59.511Z,26.20
2019-01-23T08:45:05.349Z,28.17
2019-01-23T08:48:10.158Z,27.57
2019-01-23T08:51:15.144Z,28.03
2019-01-23T08:54:19.876Z,29.80
2019-01-23T08:57:24.604Z,29.13
2019-01-23T09:00:29.334Z,27.40
2019-01-23T09:03:34.066Z,27.07
2019-01-23T09:06:38.797Z,28.27
2019-01-23T09:09:43.250Z,27.83
2019-01-23T09:12:47.701Z,26.30
2019-01-23T09:15:52.147Z,27.67
2019-01-23T09:18:56.900Z,27.20
2019-01-23T09:22:01.337Z,27.10
2019-01-23T09:25:10.165Z,26.47
2019-01-23T09:28:14.879Z,27.07
2019-01-23T09:31:24.033Z,28.40
2019-01-23T09:34:39.201Z,29.47
2019-01-23T09:37:57.544Z,22.47
2019-01-23T09:41:26.254Z,22.80
2019-01-23T09:44:56.773Z,25.73
2019-01-23T09:48:20.645Z,26.00
2019-01-23T09:52:18.622Z,26.37
2019-01-23T09:55:23.365Z,24.87
2019-01-23T09:58:27.821Z,25.77
2019-01-23T10:01:32.265Z,23.20
2019-01-23T10:04:36.725Z,24.50
2019-01-23T10:07:41.149Z,25.60
2019-01-23T10:10:45.591Z,25.70
2019-01-23T10:13:50.027Z,27.07
2019-01-23T10:16:54.721Z,27.57
2019-01-23T10:19:59.166Z,29.03
2019-01-23T10:23:03.679Z,27.93
2019-01-23T10:26:08.507Z,26.77
2019-01-23T10:29:13.244Z,26.83
2019-01-23T10:32:17.976Z,29.13
2019-01-23T10:35:22.706Z,26.47
2019-01-23T10:38:27.151Z,26.97
2019-01-23T10:41:31.588Z,27.53
2019-01-23T10:44:36.034Z,28.37
2019-01-23T10:47:40.456Z,29.53
2019-01-23T10:50:44.896Z,28.20
2019-01-23T10:53:49.336Z,29.30
2019-01-23T10:56:54.176Z,28.67
2019-01-23T10:59:58.616Z,30.43
2019-01-23T11:03:09.840Z,29.37
2019-01-23T11:06:09.803Z,29.40
2019-01-23T11:09:14.607Z,28.00
2019-01-23T11:12:19.068Z,29.07
2019-01-23T11:15:23.797Z,29.53
2019-01-23T11:18:28.234Z,26.27
2019-01-23T11:21:32.952Z,27.43
2019-01-23T11:24:37.676Z,27.17
2019-01-23T11:27:42.351Z,28.53
2019-01-23T11:30:46.861Z,27.63
2019-01-23T11:33:51.563Z,28.77
2019-01-23T11:36:56.296Z,31.43
2019-01-23T11:40:00.743Z,30.30
2019-01-23T11:43:05.754Z,29.33
2019-01-23T11:46:10.366Z,28.63
2019-01-23T11:49:14.821Z,29.50
2019-01-23T11:52:19.254Z,29.60
2019-01-23T11:55:23.768Z,29.13
2019-01-23T11:58:28.201Z,28.53
2019-01-23T12:01:32.907Z,29.17
2019-01-23T12:04:37.639Z,27.43
2019-01-23T12:07:42.245Z,31.30
2019-01-23T12:10:46.680Z,30.13
2019-01-23T12:13:51.117Z,29.70
2019-01-23T12:16:55.927Z,28.20
2019-01-23T12:20:00.385Z,31.73
2019-01-23T12:23:05.288Z,31.90
2019-01-23T12:26:10.140Z,31.17
2019-01-23T12:29:14.572Z,29.50
2019-01-23T12:32:19.292Z,30.73
2019-01-23T12:35:23.742Z,30.73
2019-01-23T12:38:28.166Z,31.27
2019-01-23T12:41:32.874Z,31.07
2019-01-23T12:44:37.379Z,32.43
2019-01-23T12:47:42.131Z,30.20
2019-01-23T12:50:46.867Z,28.67
2019-01-23T12:53:51.295Z,30.97
2019-01-23T12:56:55.730Z,29.17
2019-01-23T13:00:05.104Z,29.90
2019-01-23T13:03:06.809Z,29.47
2019-01-23T13:06:11.542Z,31.87
2019-01-23T13:09:16.270Z,26.70
2019-01-23T13:12:20.706Z,28.50
2019-01-23T13:15:29.096Z,29.87
2019-01-23T13:18:33.541Z,30.37
2019-01-23T13:21:38.264Z,30.03
2019-01-23T13:24:42.995Z,28.10
2019-01-23T13:27:49.005Z,29.87
2019-01-23T13:30:53.440Z,27.63
2019-01-23T13:33:57.878Z,29.47
2019-01-23T13:37:02.315Z,27.53
2019-01-23T13:40:23.236Z,28.40
2019-01-23T13:43:27.680Z,28.43
2019-01-23T13:46:32.392Z,28.70
2019-01-23T13:49:36.826Z,27.93
2019-01-23T13:52:41.439Z,27.63
2019-01-23T13:55:45.868Z,26.93
2019-01-23T13:58:50.597Z,28.00
2019-01-23T14:01:56.449Z,29.43
2019-01-23T14:05:01.152Z,26.83
2019-01-23T14:08:07.303Z,28.90
2019-01-23T14:11:12.082Z,27.80
2019-01-23T14:14:16.524Z,29.00
2019-01-23T14:17:21.241Z,27.77
2019-01-23T14:20:25.673Z,26.03
2019-01-23T14:23:30.392Z,26.53
2019-01-23T14:26:34.825Z,26.93
2019-01-23T14:29:39.271Z,25.40
2019-01-23T14:32:43.712Z,27.37
2019-01-23T14:35:48.170Z,26.57
2019-01-23T14:38:53.016Z,25.17
2019-01-23T14:41:57.447Z,25.30
2019-01-23T14:45:02.294Z,26.57
2019-01-23T14:48:06.779Z,27.03
2019-01-23T14:51:11.282Z,28.20
2019-01-23T14:54:15.719Z,27.27
2019-01-23T14:57:20.153Z,28.87
2019-01-23T15:00:30.713Z,26.83
2019-01-23T15:03:35.153Z,28.27
2019-01-23T15:06:39.896Z,26.70
2019-01-23T15:09:44.644Z,26.17
2019-01-23T15:12:49.238Z,25.17
2019-01-23T15:15:53.982Z,25.67
2019-01-23T15:18:59.201Z,23.60
2019-01-23T15:22:03.699Z,24.40
2019-01-23T15:25:09.560Z,22.57
2019-01-23T15:28:13.999Z,21.77
2019-01-23T15:31:18.428Z,24.73
2019-01-23T15:34:23.187Z,22.37
2019-01-23T15:37:27.917Z,22.90
2019-01-23T15:40:34.970Z,23.37
2019-01-23T15:43:39.414Z,23.83
2019-01-23T15:46:43.846Z,22.33
2019-01-23T15:49:48.580Z,22.03
2019-01-23T15:52:53.016Z,22.83
2019-01-23T15:55:57.454Z,21.80
2019-01-23T15:59:02.164Z,21.70
2019-01-23T16:02:06.661Z,23.87
2019-01-23T16:05:11.628Z,23.80
2019-01-23T16:08:16.055Z,25.80
2019-01-23T16:11:20.496Z,25.90
2019-01-23T16:14:25.203Z,26.43
2019-01-23T16:17:29.633Z,25.03
2019-01-23T16:20:34.147Z,27.30
2019-01-23T16:23:38.576Z,27.60
2019-01-23T16:26:43.083Z,28.43
2019-01-23T16:29:47.533Z,27.87
2019-01-23T16:32:52.252Z,27.33
2019-01-23T16:35:56.697Z,28.40
2019-01-23T16:39:01.411Z,26.80
2019-01-23T16:42:06.142Z,28.60
2019-01-23T16:45:17.530Z,30.43
2019-01-23T16:48:21.970Z,28.60
2019-01-23T16:51:26.417Z,29.30
2019-01-23T16:54:30.866Z,28.43
2019-01-23T16:57:35.548Z,31.97
2019-01-23T17:00:40.123Z,29.97
2019-01-23T17:03:45.091Z,30.40
2019-01-23T17:06:49.528Z,29.60
2019-01-23T17:09:53.968Z,29.67
2019-01-23T17:12:58.876Z,31.63
2019-01-23T17:16:03.394Z,31.70
2019-01-23T17:19:07.821Z,31.73
2019-01-23T17:22:12.264Z,29.53
2019-01-23T17:25:16.844Z,32.30
2019-01-23T17:28:21.288Z,31.10
2019-01-23T17:31:26.030Z,31.97
2019-01-23T17:34:30.464Z,30.53
2019-01-23T17:37:35.198Z,30.43
2019-01-23T17:40:39.654Z,30.23
2019-01-23T17:43:44.358Z,31.07
2019-01-23T17:46:49.376Z,32.17
2019-01-23T17:49:53.807Z,31.53
2019-01-23T17:52:58.281Z,31.03
2019-01-23T17:56:02.737Z,34.17
2019-01-23T17:59:07.752Z,33.73
2019-01-23T18:02:12.515Z,31.57
2019-01-23T18:05:17.245Z,31.20
2019-01-23T18:08:21.683Z,31.13
2019-01-23T18:11:26.407Z,33.47
2019-01-23T18:14:30.836Z,32.53
2019-01-23T18:17:35.277Z,32.40
2019-01-23T18:20:39.978Z,34.53
2019-01-23T18:23:44.814Z,32.77
2019-01-23T18:26:49.545Z,34.20
2019-01-23T18:29:54.276Z,34.13
2019-01-23T18:33:00.277Z,33.73
2019-01-23T18:36:36.506Z,34.60
2019-01-23T18:40:00.246Z,32.40
2019-01-23T18:43:36.341Z,32.30
2019-01-23T18:47:11.121Z,32.80
2019-01-23T18:50:37.935Z,32.70
2019-01-23T18:53:42.378Z,30.77
2019-01-23T18:56:47.083Z,32.03
2019-01-23T18:59:51.917Z,30.50
2019-01-23T19:02:56.759Z,32.60
2019-01-23T19:06:01.197Z,30.90
2019-01-23T19:09:09.102Z,32.13
2019-01-23T19:12:13.630Z,30.87
2019-01-23T19:15:21.119Z,32.00
2019-01-23T19:18:25.868Z,31.90
2019-01-23T19:21:30.308Z,30.90
2019-01-23T19:24:36.542Z,30.90
2019-01-23T19:27:41.603Z,30.60
2019-01-23T19:30:46.411Z,32.37
2019-01-23T19:33:51.245Z,32.20
2019-01-23T19:36:55.724Z,32.20
2019-01-23T19:40:00.488Z,30.63
2019-01-23T19:43:06.872Z,32.50
2019-01-23T19:46:11.496Z,31.07
2019-01-23T19:49:16.316Z,31.30
2019-01-23T19:52:21.107Z,29.03
2019-01-23T19:55:25.532Z,31.70
2019-01-23T19:58:29.966Z,32.33
2019-01-23T20:01:34.723Z,30.57
2019-01-23T20:04:39.457Z,31.03
2019-01-23T20:07:44.493Z,31.80
2019-01-23T20:10:48.927Z,29.47
2019-01-23T20:13:53.645Z,32.23
2019-01-23T20:16:58.377Z,31.30
2019-01-23T20:20:03.231Z,28.43
2019-01-23T20:23:07.943Z,28.53
2019-01-23T20:26:12.417Z,31.93
2019-01-23T20:29:16.873Z,29.33
2019-01-23T20:32:21.314Z,30.60
2019-01-23T20:35:25.769Z,31.13
2019-01-23T20:38:30.473Z,34.27
2019-01-23T20:41:34.908Z,35.33
2019-01-23T20:44:39.625Z,37.03
2019-01-23T20:47:44.060Z,35.87
2019-01-23T20:50:48.509Z,36.13
2019-01-23T20:53:52.969Z,37.73
2019-01-23T20:56:57.418Z,37.80
2019-01-23T21:00:02.155Z,37.20
2019-01-23T21:03:06.685Z,35.10
2019-01-23T21:06:11.673Z,38.90
2019-01-23T21:09:16.171Z,39.37
2019-01-23T21:12:20.636Z,37.97
2019-01-23T21:15:30.642Z,36.53
2019-01-23T21:18:35.350Z,37.50
2019-01-23T21:21:40.079Z,37.27
2019-01-23T21:24:44.812Z,36.47
2019-01-23T21:27:49.546Z,37.30
2019-01-23T21:30:54.000Z,35.60
2019-01-23T21:33:58.441Z,36.63
2019-01-23T21:37:03.227Z,34.80
2019-01-23T21:40:21.136Z,37.10
2019-01-23T21:43:25.578Z,36.27
2019-01-23T21:46:30.031Z,35.30
2019-01-23T21:49:34.742Z,35.43
2019-01-23T21:52:39.192Z,35.20
2019-01-23T21:55:43.647Z,34.40
2019-01-23T21:58:48.088Z,34.30
2019-01-23T22:01:52.542Z,34.90
2019-01-23T22:04:57.000Z,35.27
2019-01-23T22:08:01.697Z,35.17
2019-01-23T22:11:06.424Z,34.27
2019-01-23T22:14:10.866Z,32.87
2019-01-23T22:17:15.322Z,34.77
2019-01-23T22:20:21.987Z,35.90
2019-01-23T22:23:26.779Z,35.13
2019-01-23T22:26:31.229Z,34.03
2019-01-23T22:29:35.941Z,35.13
2019-01-23T22:32:40.662Z,34.67
2019-01-23T22:35:45.110Z,35.77
2019-01-23T22:38:49.553Z,35.73
2019-01-23T22:41:54.345Z,34.70
2019-01-23T22:44:59.076Z,35.90
2019-01-23T22:48:03.699Z,34.53
2019-01-23T22:51:08.147Z,36.87
2019-01-23T22:54:12.587Z,34.07
2019-01-23T22:57:17.065Z,35.80
2019-01-23T23:00:39.760Z,35.40
2019-01-23T23:03:44.660Z,34.57
2019-01-23T23:06:49.396Z,36.80
2019-01-23T23:09:53.838Z,33.23
2019-01-23T23:12:58.551Z,34.87
2019-01-23T23:16:02.994Z,36.00
2019-01-23T23:19:07.443Z,33.47
2019-01-23T23:22:11.887Z,36.83
2019-01-23T23:25:16.467Z,35.67
2019-01-23T23:28:25.922Z,37.67
2019-01-23T23:31:27.100Z,35.63
2019-01-23T23:34:31.547Z,34.70
2019-01-23T23:37:36.082Z,33.70
2019-01-23T23:40:40.819Z,34.70
2019-01-23T23:43:45.549Z,35.83
2019-01-23T23:46:50.283Z,35.03
2019-01-23T23:49:55.034Z,33.77
2019-01-23T23:52:59.482Z,35.23
2019-01-23T23:56:03.927Z,33.37
2019-01-23T23:59:08.691Z,35.77
